Time;durP1;ratioP1;P1;durP2;ratioP2;P2;SDS_P1;SDS_P2;PMS_P1;PMS_P2;Temp;Humidity;BMP_temperature;BMP_pressure;BME280_temperature;BME280_humidity;BME280_pressure;Samples;Min_cycle;Max_cycle;Signal;HPM_P1;HPM_P2
2022/07/03 00:01:08;;;;;;;4.13;2.40;;;15.10;99.90;;;;;;5055071;28;20065;-68
2022/07/03 00:03:34;;;;;;;7.55;2.78;;;15.10;99.90;;;;;;5054642;28;20070;-68
2022/07/03 00:05:59;;;;;;;4.15;2.30;;;15.10;99.90;;;;;;5055271;28;20027;-68
2022/07/03 00:08:25;;;;;;;4.65;2.45;;;15.10;99.90;;;;;;5055171;28;20512;-68
2022/07/03 00:10:51;;;;;;;10.43;3.47;;;15.20;99.90;;;;;;5054871;28;20054;-68
2022/07/03 00:13:16;;;;;;;4.45;2.67;;;15.20;99.90;;;;;;5054668;28;20025;-69
2022/07/03 00:15:43;;;;;;;6.32;2.47;;;15.30;99.90;;;;;;5055038;28;20049;-68
2022/07/03 00:18:09;;;;;;;5.28;2.90;;;15.30;99.90;;;;;;5054998;28;20028;-68
2022/07/03 00:20:41;;;;;;;7.07;2.83;;;15.40;99.90;;;;;;5054890;28;20025;-68
2022/07/03 00:23:10;;;;;;;6.65;3.42;;;15.40;99.90;;;;;;5054720;28;20086;-69
2022/07/03 00:25:39;;;;;;;3.33;2.50;;;15.30;99.90;;;;;;5054842;28;20029;-68
2022/07/03 00:28:06;;;;;;;5.05;3.20;;;15.40;99.90;;;;;;5054747;28;20500;-68
2022/07/03 00:30:33;;;;;;;4.25;2.92;;;15.40;99.90;;;;;;5055351;28;20032;-68
2022/07/03 00:33:02;;;;;;;6.43;2.70;;;15.50;99.90;;;;;;5054688;28;20036;-68
2022/07/03 00:35:31;;;;;;;4.35;2.58;;;15.50;99.90;;;;;;5054595;28;20094;-68
2022/07/03 00:37:57;;;;;;;5.53;3.08;;;15.60;99.90;;;;;;5036828;28;20469;-68
2022/07/03 00:40:23;;;;;;;6.07;2.90;;;15.60;99.90;;;;;;5054472;28;20090;-68
2022/07/03 00:42:51;;;;;;;3.53;2.92;;;15.60;99.90;;;;;;5054734;28;20040;-68
2022/07/03 00:45:20;;;;;;;7.35;3.15;;;15.70;99.90;;;;;;5054491;28;20035;-68
2022/07/03 00:47:46;;;;;;;4.93;2.55;;;15.70;99.90;;;;;;5054301;28;20033;-68
2022/07/03 00:50:12;;;;;;;3.75;3.00;;;15.70;99.90;;;;;;5054573;28;20473;-68
2022/07/03 00:52:39;;;;;;;6.53;3.53;;;15.70;99.90;;;;;;5054380;28;20029;-68
2022/07/03 00:55:14;;;;;;;3.72;2.67;;;15.80;99.90;;;;;;5054532;28;20040;-70
2022/07/03 00:57:45;;;;;;;5.72;2.72;;;15.80;99.90;;;;;;5053979;28;20032;-70
2022/07/03 01:00:12;;;;;;;4.88;2.80;;;15.80;99.90;;;;;;5053582;28;20382;-70
2022/07/03 01:02:43;;;;;;;6.10;2.75;;;15.80;99.90;;;;;;5053935;28;20053;-70
2022/07/03 01:05:28;;;;;;;4.43;2.53;;;15.90;99.90;;;;;;5053471;28;20473;-70
2022/07/03 01:08:15;;;;;;;3.90;2.40;;;15.90;99.90;;;;;;5054062;28;20029;-70
2022/07/03 01:10:49;;;;;;;7.65;2.90;;;15.90;99.90;;;;;;5054531;28;20342;-70
2022/07/03 01:13:53;;;;;;;3.15;2.47;;;15.90;99.90;;;;;;5053153;28;20107;-70
2022/07/03 01:16:30;;;;;;;6.10;3.08;;;15.90;99.90;;;;;;5057638;28;20029;-70
2022/07/03 01:19:21;;;;;;;6.20;2.28;;;15.90;99.90;;;;;;5057696;28;20029;-70
2022/07/03 01:21:55;;;;;;;5.82;2.80;;;15.90;99.90;;;;;;5057659;28;20029;-70
2022/07/03 01:25:04;;;;;;;4.30;2.97;;;15.90;99.90;;;;;;5057840;28;20025;-70
2022/07/03 01:27:41;;;;;;;4.18;2.60;;;15.90;99.90;;;;;;5020683;28;20494;-70
2022/07/03 01:30:12;;;;;;;5.35;2.75;;;15.80;99.90;;;;;;5057826;28;20025;-70
2022/07/03 01:32:54;;;;;;;6.05;3.85;;;15.80;99.90;;;;;;5057334;28;20025;-70
2022/07/03 01:35:34;;;;;;;7.63;3.92;;;15.80;99.90;;;;;;5057878;28;20017;-70
2022/07/03 01:38:09;;;;;;;16.10;5.07;;;15.80;99.90;;;;;;5057240;28;20470;-70
2022/07/03 01:40:37;;;;;;;9.10;4.53;;;15.80;99.90;;;;;;5057314;28;20025;-70
2022/07/03 01:43:05;;;;;;;8.65;3.50;;;15.80;99.90;;;;;;5057279;28;20378;-70
2022/07/03 01:45:36;;;;;;;4.35;3.13;;;15.70;99.90;;;;;;5056767;28;20114;-70
2022/07/03 01:48:02;;;;;;;6.75;3.45;;;15.70;99.90;;;;;;5056988;28;20032;-70
2022/07/03 01:50:29;;;;;;;8.43;4.80;;;15.70;99.90;;;;;;5056989;28;20033;-70
2022/07/03 01:52:56;;;;;;;7.57;4.05;;;15.70;99.90;;;;;;5056931;28;20029;-70
2022/07/03 01:55:23;;;;;;;6.32;4.15;;;15.70;99.90;;;;;;5056993;28;20037;-70
2022/07/03 01:57:50;;;;;;;7.20;3.60;;;15.70;99.90;;;;;;5056902;28;20048;-70
2022/07/03 02:00:19;;;;;;;7.30;2.97;;;15.70;99.90;;;;;;5057111;28;20033;-70
2022/07/03 02:03:04;;;;;;;8.15;4.40;;;15.60;99.90;;;;;;5057012;28;20033;-70
2022/07/03 02:05:34;;;;;;;8.70;3.92;;;15.60;99.90;;;;;;5056767;28;20021;-70
2022/07/03 02:08:23;;;;;;;7.15;4.07;;;15.50;99.90;;;;;;5057001;28;20021;-70
2022/07/03 02:11:13;;;;;;;5.03;3.90;;;15.60;99.90;;;;;;5036878;28;20505;-70
2022/07/03 02:14:16;;;;;;;8.82;4.32;;;15.60;99.90;;;;;;5051965;28;20025;-70
2022/07/03 02:17:09;;;;;;;7.45;4.20;;;15.60;99.90;;;;;;5056672;28;20032;-70
2022/07/03 02:19:54;;;;;;;6.23;4.13;;;15.60;99.90;;;;;;5056823;28;20017;-70
2022/07/03 02:22:24;;;;;;;5.45;3.97;;;15.70;99.90;;;;;;5056575;28;20025;-70
2022/07/03 02:24:50;;;;;;;4.68;3.78;;;15.70;99.90;;;;;;5056255;28;20025;-70
2022/07/03 02:27:19;;;;;;;8.60;3.95;;;15.70;99.90;;;;;;5056337;28;20087;-70
2022/07/03 02:30:01;;;;;;;12.40;5.32;;;15.70;99.90;;;;;;5056448;28;20025;-70
2022/07/03 02:32:30;;;;;;;6.07;3.55;;;15.60;99.90;;;;;;5055853;28;20440;-71
2022/07/03 02:35:02;;;;;;;7.07;4.50;;;15.60;99.90;;;;;;5056167;28;20094;-70
2022/07/03 02:37:31;;;;;;;6.15;4.30;;;15.60;99.90;;;;;;5055597;28;20033;-70
2022/07/03 02:40:26;;;;;;;8.77;4.72;;;15.60;99.90;;;;;;5056178;28;20079;-70
2022/07/03 02:43:01;;;;;;;5.28;4.60;;;15.60;99.90;;;;;;5047914;28;20044;-70
2022/07/03 02:45:36;;;;;;;5.85;3.78;;;15.60;99.90;;;;;;5056014;28;20075;-70
2022/07/03 02:48:20;;;;;;;5.88;3.50;;;15.60;99.90;;;;;;5056110;28;20029;-70
2022/07/03 02:50:50;;;;;;;6.50;4.45;;;15.60;99.90;;;;;;5056282;28;20032;-70
2022/07/03 02:53:33;;;;;;;7.78;4.20;;;15.60;99.90;;;;;;5055921;28;20021;-70
2022/07/03 02:56:07;;;;;;;8.43;6.00;;;15.60;99.90;;;;;;5056183;28;20036;-70
2022/07/03 02:58:44;;;;;;;;;;;15.60;99.90;;;;;;5056556;28;20266;-70
2022/07/03 03:01:34;;;;;;;8.30;5.25;;;15.70;99.90;;;;;;5038381;28;19905;-70
2022/07/03 03:04:14;;;;;;;9.60;6.13;;;15.70;99.90;;;;;;5035982;28;20469;-70
2022/07/03 03:06:46;;;;;;;16.30;7.28;;;15.70;99.90;;;;;;5036051;28;20470;-70
2022/07/03 03:09:19;;;;;;;7.18;5.43;;;15.80;99.90;;;;;;5036072;28;20025;-70
2022/07/03 03:11:45;;;;;;;10.48;5.93;;;15.90;99.90;;;;;;5035599;28;20025;-70
2022/07/03 03:14:13;;;;;;;10.43;5.88;;;15.90;99.90;;;;;;5035896;28;20022;-70
2022/07/03 03:16:45;;;;;;;8.93;6.00;;;15.90;99.90;;;;;;5035522;28;20030;-70
2022/07/03 03:19:12;;;;;;;7.10;5.07;;;16.00;99.90;;;;;;5035540;28;20032;-70
2022/07/03 03:21:50;;;;;;;11.38;5.68;;;16.00;99.90;;;;;;5035721;28;20100;-70
2022/07/03 03:24:17;;;;;;;8.63;5.47;;;16.10;99.90;;;;;;5035385;28;20107;-70
2022/07/03 03:26:42;;;;;;;9.23;5.95;;;16.00;99.90;;;;;;5035436;28;20037;-70
2022/07/03 03:29:08;;;;;;;7.38;4.63;;;16.00;99.90;;;;;;5035763;28;20025;-70
2022/07/03 03:31:33;;;;;;;9.50;5.55;;;16.00;99.90;;;;;;5035304;28;20028;-70
2022/07/03 03:34:00;;;;;;;5.07;4.60;;;16.10;99.90;;;;;;5035087;28;20026;-70
2022/07/03 03:36:25;;;;;;;7.00;5.78;;;16.10;99.90;;;;;;5034724;28;20474;-70
2022/07/03 03:38:51;;;;;;;15.23;7.95;;;16.10;99.90;;;;;;5035404;28;20022;-70
2022/07/03 03:41:18;;;;;;;11.93;5.93;;;16.10;99.90;;;;;;5035001;28;20104;-70
2022/07/03 03:43:44;;;;;;;9.15;5.75;;;16.20;99.90;;;;;;5035241;28;20030;-70
2022/07/03 03:46:10;;;;;;;6.97;5.32;;;16.10;99.90;;;;;;5034962;28;20025;-70
2022/07/03 03:48:36;;;;;;;7.35;4.97;;;16.10;99.90;;;;;;5035544;28;20022;-70
2022/07/03 03:51:04;;;;;;;7.55;4.97;;;16.20;99.90;;;;;;5035460;28;20060;-70
2022/07/03 03:53:30;;;;;;;6.93;5.10;;;16.20;99.90;;;;;;5034680;28;20108;-70
2022/07/03 03:56:22;;;;;;;6.32;5.45;;;16.20;99.90;;;;;;5034879;28;20038;-70
2022/07/03 03:58:47;;;;;;;8.43;5.97;;;16.10;99.90;;;;;;5031220;28;20029;-70
2022/07/03 04:01:13;;;;;;;9.05;5.00;;;16.10;99.90;;;;;;5034761;28;20060;-70
2022/07/03 04:03:40;;;;;;;7.43;4.65;;;16.10;99.90;;;;;;5041368;28;20481;-70
2022/07/03 04:06:05;;;;;;;7.75;4.30;;;16.10;99.90;;;;;;5034844;28;20025;-70
2022/07/03 04:08:31;;;;;;;12.43;5.90;;;16.20;99.90;;;;;;5053073;28;20021;-70
2022/07/03 04:10:57;;;;;;;10.85;6.15;;;16.10;99.90;;;;;;5054445;28;20025;-70
2022/07/03 04:13:23;;;;;;;11.38;6.93;;;16.10;99.90;;;;;;5052097;28;20040;-70
2022/07/03 04:15:50;;;;;;;8.13;6.10;;;16.20;99.90;;;;;;5054033;28;20091;-70
2022/07/03 04:18:16;;;;;;;10.32;5.57;;;16.20;99.90;;;;;;5054393;28;20469;-70
2022/07/03 04:20:42;;;;;;;11.75;5.55;;;16.10;99.90;;;;;;5054480;28;20036;-70
2022/07/03 04:23:08;;;;;;;14.45;7.05;;;16.20;99.90;;;;;;5054207;28;20025;-70
2022/07/03 04:25:33;;;;;;;9.55;5.93;;;16.20;99.90;;;;;;5054122;28;20098;-70
2022/07/03 04:27:59;;;;;;;8.05;5.63;;;16.20;99.90;;;;;;5054308;28;20040;-70
2022/07/03 04:30:25;;;;;;;8.73;6.25;;;16.20;99.90;;;;;;5054131;28;20024;-70
2022/07/03 04:32:52;;;;;;;9.10;6.13;;;16.20;99.90;;;;;;5054493;28;20028;-70
2022/07/03 04:35:18;;;;;;;8.85;5.93;;;16.20;99.90;;;;;;5054537;28;20104;-70
2022/07/03 04:37:44;;;;;;;9.88;6.63;;;16.20;99.90;;;;;;5054496;28;20100;-70
2022/07/03 04:40:10;;;;;;;9.07;5.93;;;16.30;99.90;;;;;;5036174;28;20059;-70
2022/07/03 04:42:36;;;;;;;8.10;5.05;;;16.30;99.90;;;;;;5054234;28;20025;-70
2022/07/03 04:45:02;;;;;;;10.15;5.70;;;16.30;99.90;;;;;;5053939;28;20511;-71
2022/07/03 04:47:28;;;;;;;10.02;5.50;;;16.30;99.90;;;;;;5054398;28;20108;-71
2022/07/03 04:49:53;;;;;;;12.70;6.22;;;16.30;99.90;;;;;;5054334;28;20498;-70
2022/07/03 04:52:19;;;;;;;9.20;5.70;;;16.40;99.90;;;;;;5054101;28;20032;-70
2022/07/03 04:54:45;;;;;;;9.65;6.25;;;16.40;99.90;;;;;;5051483;28;20082;-70
2022/07/03 04:57:10;;;;;;;11.48;6.43;;;16.50;99.90;;;;;;5053831;28;20032;-70
2022/07/03 04:59:36;;;;;;;11.63;6.53;;;16.40;99.90;;;;;;5054333;28;20056;-70
2022/07/03 05:02:01;;;;;;;13.35;5.97;;;16.50;99.90;;;;;;5053703;28;20032;-70
2022/07/03 05:04:27;;;;;;;12.35;5.85;;;16.50;99.90;;;;;;5053650;28;20028;-71
2022/07/03 05:06:53;;;;;;;11.88;5.93;;;16.60;99.90;;;;;;5053467;28;20060;-71
2022/07/03 05:09:18;;;;;;;9.70;6.50;;;16.70;99.90;;;;;;5053731;28;20096;-71
2022/07/03 05:11:44;;;;;;;11.07;7.03;;;16.80;99.90;;;;;;5053426;28;20100;-70
2022/07/03 05:14:10;;;;;;;10.95;6.28;;;16.90;99.90;;;;;;5053878;28;20025;-70
2022/07/03 05:16:36;;;;;;;9.30;5.78;;;17.00;99.90;;;;;;5053733;28;20033;-70
2022/07/03 05:19:02;;;;;;;9.70;7.35;;;17.10;99.90;;;;;;5053946;28;20028;-70
2022/07/03 05:21:28;;;;;;;6.70;5.50;;;17.10;99.90;;;;;;5053675;28;20021;-70
2022/07/03 05:23:53;;;;;;;6.68;5.57;;;17.20;99.90;;;;;;5053539;28;20538;-71
2022/07/03 05:26:19;;;;;;;10.50;5.60;;;17.10;99.90;;;;;;5053553;28;20036;-71
2022/07/03 05:28:45;;;;;;;7.38;5.85;;;17.20;99.90;;;;;;5053741;28;20032;-71
2022/07/03 05:31:11;;;;;;;12.40;6.22;;;17.20;99.90;;;;;;5053739;28;20021;-70
2022/07/03 05:33:37;;;;;;;14.82;6.63;;;17.30;99.90;;;;;;5053417;28;20477;-70
2022/07/03 05:36:03;;;;;;;9.68;6.05;;;17.30;99.90;;;;;;5053785;28;20033;-70
2022/07/03 05:41:13;;;;;;;12.95;5.85;;;17.40;99.90;;;;;;5053534;28;20104;-71
2022/07/03 05:43:38;;;;;;;5.85;4.53;;;17.30;99.90;;;;;;5053651;28;20021;-71
2022/07/03 05:46:04;;;;;;;5.28;4.28;;;17.30;99.90;;;;;;5053399;28;20096;-71
2022/07/03 05:48:30;;;;;;;9.05;5.47;;;17.30;99.90;;;;;;5053305;28;20055;-71
2022/07/03 05:50:56;;;;;;;6.47;5.13;;;17.30;99.90;;;;;;5053307;28;20071;-71
2022/07/03 05:53:22;;;;;;;11.55;6.28;;;17.30;99.90;;;;;;5053262;28;20021;-71
2022/07/03 05:55:48;;;;;;;11.20;6.10;;;17.30;99.90;;;;;;5053606;28;20389;-70
2022/07/03 05:58:13;;;;;;;10.45;5.95;;;17.30;99.90;;;;;;5053222;28;20018;-71
2022/07/03 06:00:39;;;;;;;6.75;4.75;;;17.30;99.90;;;;;;5055320;28;20021;-71
2022/07/03 06:03:05;;;;;;;9.95;5.97;;;17.20;99.90;;;;;;5057256;28;20040;-71
2022/07/03 06:05:32;;;;;;;9.63;6.68;;;17.20;99.90;;;;;;5056965;28;20024;-71
2022/07/03 06:07:58;;;;;;;8.93;6.40;;;17.20;99.90;;;;;;5056974;28;20083;-71
2022/07/03 06:10:24;;;;;;;11.98;5.68;;;17.20;99.90;;;;;;5057226;28;20440;-71
2022/07/03 06:12:49;;;;;;;7.68;5.40;;;17.20;99.90;;;;;;5056862;28;20052;-71
2022/07/03 06:15:15;;;;;;;8.52;5.97;;;17.20;99.90;;;;;;5056740;28;20469;-71
2022/07/03 06:17:40;;;;;;;12.43;6.55;;;17.10;99.90;;;;;;5056857;28;20474;-71
2022/07/03 06:20:06;;;;;;;7.15;5.63;;;17.10;99.90;;;;;;5056708;28;20104;-71
2022/07/03 06:22:33;;;;;;;6.40;5.35;;;17.10;99.90;;;;;;5056604;28;20029;-71
2022/07/03 06:24:59;;;;;;;9.95;5.88;;;17.10;99.90;;;;;;5056812;28;20032;-71
2022/07/03 06:27:25;;;;;;;7.25;5.20;;;17.10;99.90;;;;;;5056816;28;20025;-71
2022/07/03 06:29:50;;;;;;;11.25;6.63;;;17.20;99.90;;;;;;5056829;28;20075;-71
2022/07/03 06:32:17;;;;;;;9.60;6.78;;;17.40;99.90;;;;;;5055789;28;20025;-71
2022/07/03 06:34:43;;;;;;;10.57;6.90;;;17.60;99.90;;;;;;5056409;28;20044;-71
2022/07/03 06:37:10;;;;;;;12.32;6.57;;;17.80;99.90;;;;;;5056482;28;20017;-71
2022/07/03 06:39:35;;;;;;;14.63;10.18;;;17.90;99.90;;;;;;5054114;28;20106;-71
2022/07/03 06:42:01;;;;;;;10.60;7.40;;;18.00;99.90;;;;;;5056232;28;20068;-71
2022/07/03 06:44:27;;;;;;;9.95;6.38;;;18.10;99.90;;;;;;5055979;28;20025;-71
2022/07/03 06:46:53;;;;;;;10.40;6.60;;;18.10;99.90;;;;;;5056323;28;20052;-71
2022/07/03 06:49:19;;;;;;;10.70;6.40;;;18.00;99.90;;;;;;5056237;28;20017;-71
2022/07/03 06:51:45;;;;;;;9.13;6.68;;;18.00;99.90;;;;;;5056411;28;20016;-71
2022/07/03 06:54:10;;;;;;;18.02;8.30;;;18.10;99.90;;;;;;5056128;28;20573;-71
2022/07/03 06:56:36;;;;;;;12.40;6.30;;;18.20;99.90;;;;;;5058783;28;20025;-69
2022/07/03 06:59:01;;;;;;;10.30;7.38;;;18.20;99.90;;;;;;5057990;28;20486;-69
2022/07/03 07:01:27;;;;;;;19.10;7.53;;;18.30;99.90;;;;;;5041915;28;20096;-69
2022/07/03 07:03:53;;;;;;;10.13;7.15;;;18.40;99.90;;;;;;5058363;28;20499;-69
2022/07/03 07:06:18;;;;;;;11.57;6.72;;;18.50;99.90;;;;;;5041025;28;20078;-69
2022/07/03 07:08:44;;;;;;;13.02;6.75;;;18.60;99.90;;;;;;5058417;28;20029;-69
2022/07/03 07:11:09;;;;;;;11.77;7.38;;;18.60;99.90;;;;;;5059035;28;20104;-69
2022/07/03 07:13:35;;;;;;;13.00;6.97;;;18.80;99.90;;;;;;5059851;28;20028;-69
2022/07/03 07:16:01;;;;;;;12.18;6.38;;;18.90;99.90;;;;;;5041915;28;20524;-69
2022/07/03 07:18:26;;;;;;;11.02;5.88;;;19.20;99.90;;;;;;5059654;28;20371;-69
2022/07/03 07:20:52;;;;;;;11.73;4.78;;;19.20;99.90;;;;;;5059020;28;20021;-69
2022/07/03 07:23:18;;;;;;;10.30;4.32;;;19.50;99.90;;;;;;5058852;28;20028;-69
2022/07/03 07:25:43;;;;;;;8.95;4.05;;;19.70;99.90;;;;;;5040630;28;20028;-69
2022/07/03 07:28:09;;;;;;;6.35;3.70;;;19.80;99.90;;;;;;5058398;28;20458;-69
2022/07/03 07:30:35;;;;;;;8.32;3.60;;;20.10;99.90;;;;;;5058121;28;20101;-69
2022/07/03 07:33:00;;;;;;;4.38;3.25;;;20.30;99.90;;;;;;5057567;28;20488;-69
2022/07/03 07:35:26;;;;;;;10.73;3.72;;;20.70;99.90;;;;;;5057643;28;20032;-69
2022/07/03 07:37:52;;;;;;;4.65;2.53;;;20.90;99.90;;;;;;5057854;28;20456;-69
2022/07/03 07:40:18;;;;;;;8.65;2.72;;;21.30;99.90;;;;;;5059327;28;20017;-70
2022/07/03 07:42:44;;;;;;;2.83;2.40;;;21.50;99.90;;;;;;5042528;28;20470;-70
2022/07/03 07:45:10;;;;;;;4.75;2.50;;;21.90;99.90;;;;;;5059743;28;20068;-70
2022/07/03 07:47:36;;;;;;;7.00;2.10;;;22.10;99.90;;;;;;5060602;28;20024;-70
2022/07/03 07:50:02;;;;;;;13.40;2.70;;;22.40;99.90;;;;;;5058527;28;20029;-71
2022/07/03 07:52:27;;;;;;;4.85;2.03;;;22.60;99.90;;;;;;5056262;28;20017;-71
2022/07/03 07:54:53;;;;;;;3.15;1.80;;;22.80;99.90;;;;;;5056616;28;20033;-71
2022/07/03 07:57:18;;;;;;;5.93;2.00;;;22.90;99.90;;;;;;5058386;28;20017;-71
2022/07/03 07:59:44;;;;;;;5.72;2.08;;;23.10;99.90;;;;;;5058455;28;20104;-71
2022/07/03 08:07:38;;;;;;;5.47;1.67;;;23.60;99.90;;;;;;5056194;28;20139;-71
2022/07/03 08:10:04;;;;;;;4.78;1.88;;;23.70;99.90;;;;;;5056893;28;20060;-69
2022/07/03 08:12:29;;;;;;;4.38;2.25;;;23.70;99.90;;;;;;5056522;28;20033;-70
2022/07/03 08:14:55;;;;;;;4.00;1.52;;;24.00;99.90;;;;;;5056016;28;20025;-71
2022/07/03 08:17:20;;;;;;;7.15;2.08;;;24.30;99.90;;;;;;5057363;28;20025;-70
2022/07/03 08:19:46;;;;;;;4.47;1.90;;;24.50;99.90;;;;;;5040121;28;20029;-70
2022/07/03 08:22:12;;;;;;;4.70;1.77;;;24.60;99.90;;;;;;5056435;28;20039;-70
2022/07/03 08:24:37;;;;;;;9.60;2.00;;;24.80;99.90;;;;;;5055021;28;20056;-69
2022/07/03 08:27:04;;;;;;;6.60;1.80;;;25.00;99.90;;;;;;5037303;28;20035;-70
2022/07/03 08:29:30;;;;;;;7.88;1.70;;;25.20;99.90;;;;;;5054538;28;20029;-69
2022/07/03 08:31:56;;;;;;;5.70;1.85;;;25.30;99.90;;;;;;5054677;28;20439;-69
2022/07/03 08:34:22;;;;;;;8.82;1.83;;;25.30;99.90;;;;;;5054522;28;20469;-69
2022/07/03 08:36:47;;;;;;;5.35;1.98;;;25.50;99.90;;;;;;5054701;28;20021;-68
2022/07/03 08:39:13;;;;;;;3.60;1.80;;;25.50;99.90;;;;;;5054837;28;20033;-70
2022/07/03 08:41:40;;;;;;;4.18;1.75;;;25.40;99.90;;;;;;5054957;28;20029;-70
2022/07/03 08:44:08;;;;;;;5.63;1.90;;;25.40;99.90;;;;;;5054326;28;20531;-70
2022/07/03 08:46:35;;;;;;;6.90;1.85;;;25.60;99.90;;;;;;5054295;28;20374;-70
2022/07/03 08:49:02;;;;;;;7.50;2.25;;;25.50;99.90;;;;;;5053742;28;20060;-70
2022/07/03 08:51:28;;;;;;;8.98;2.45;;;25.30;99.90;;;;;;5034370;28;20079;-70
2022/07/03 08:53:57;;;;;;;8.75;2.63;;;25.10;99.90;;;;;;5053725;28;20028;-70
2022/07/03 08:56:23;;;;;;;5.68;2.47;;;24.90;99.90;;;;;;5054267;28;20044;-70
2022/07/03 08:58:49;;;;;;;3.55;1.80;;;24.60;99.90;;;;;;5054196;28;20017;-70
2022/07/03 09:01:17;;;;;;;3.78;2.10;;;24.80;99.90;;;;;;5054067;28;20028;-69
2022/07/03 09:03:42;;;;;;;3.75;1.48;;;25.10;99.90;;;;;;5053797;28;20029;-69
2022/07/03 09:06:08;;;;;;;6.10;1.40;;;25.30;99.90;;;;;;5053695;28;20025;-69
2022/07/03 09:08:36;;;;;;;3.55;1.70;;;25.50;99.90;;;;;;5054026;28;20052;-69
2022/07/03 09:11:02;;;;;;;5.82;1.60;;;25.40;99.90;;;;;;5053800;28;20025;-69
2022/07/03 09:13:28;;;;;;;5.15;1.95;;;25.40;99.90;;;;;;5053519;28;20025;-69
2022/07/03 09:15:54;;;;;;;8.45;1.23;;;25.60;99.90;;;;;;5053680;28;20021;-69
2022/07/03 09:18:39;;;;;;;2.72;1.10;;;25.50;99.90;;;;;;5036410;28;20024;-70
2022/07/03 09:21:05;;;;;;;2.25;1.48;;;25.00;99.90;;;;;;5054662;28;20101;-70
2022/07/03 09:23:39;;;;;;;3.75;1.42;;;24.80;99.90;;;;;;5053257;28;20035;-70
2022/07/03 09:26:05;;;;;;;5.18;1.55;;;25.00;99.90;;;;;;5053319;28;20052;-70
2022/07/03 09:28:51;;;;;;;4.32;1.27;;;25.20;99.90;;;;;;5053322;28;20527;-70
2022/07/03 09:31:36;;;;;;;6.70;1.67;;;25.70;99.90;;;;;;5053657;28;20123;-70
2022/07/03 09:34:09;;;;;;;2.78;1.10;;;26.20;99.90;;;;;;5054635;28;20077;-71
2022/07/03 09:36:40;;;;;;;3.72;1.20;;;26.30;99.90;;;;;;5057817;28;20025;-70
2022/07/03 09:39:16;;;;;;;3.83;1.75;;;26.30;99.90;;;;;;5058672;28;20393;-70
2022/07/03 09:41:54;;;;;;;7.95;1.27;;;26.50;99.90;;;;;;5058680;28;20036;-70
2022/07/03 09:44:45;;;;;;;2.88;0.90;;;26.60;99.90;;;;;;5058248;28;20350;-70
2022/07/03 09:47:25;;;;;;;4.78;1.25;;;26.30;99.90;;;;;;5058742;28;20017;-71
2022/07/03 09:49:54;;;;;;;2.78;1.08;;;26.30;99.90;;;;;;5059053;28;20036;-70
2022/07/03 09:52:28;;;;;;;4.97;1.25;;;26.30;99.90;;;;;;5058380;28;20053;-70
2022/07/03 09:54:58;;;;;;;5.03;1.35;;;26.20;99.90;;;;;;5057022;28;20057;-70
2022/07/03 09:57:26;;;;;;;8.45;1.48;;;26.10;99.90;;;;;;5057026;28;20067;-71
2022/07/03 10:00:13;;;;;;;5.53;1.13;;;26.10;99.90;;;;;;5057163;28;20017;-70
2022/07/03 10:03:05;;;;;;;3.35;1.10;;;26.50;99.90;;;;;;5057417;28;20025;-70
2022/07/03 10:05:39;;;;;;;3.05;0.95;;;26.30;99.90;;;;;;5056976;28;20025;-70
2022/07/03 10:08:07;;;;;;;3.13;1.27;;;26.60;99.90;;;;;;5056658;28;20025;-70
2022/07/03 10:10:44;;;;;;;5.35;1.25;;;26.80;99.90;;;;;;5056563;28;20021;-69
2022/07/03 10:13:10;;;;;;;2.10;1.15;;;26.80;99.90;;;;;;5056749;28;20116;-69
2022/07/03 10:15:38;;;;;;;5.20;1.30;;;26.70;99.90;;;;;;5056459;28;20093;-69
2022/07/03 10:18:09;;;;;;;4.18;1.15;;;26.40;99.90;;;;;;5056518;28;20081;-69
2022/07/03 10:20:38;;;;;;;4.22;1.10;;;26.30;99.90;;;;;;5056576;28;20143;-69
2022/07/03 10:23:03;;;;;;;3.28;1.38;;;26.10;99.90;;;;;;5056572;28;20029;-69
2022/07/03 10:25:30;;;;;;;10.05;1.73;;;25.80;99.90;;;;;;5056197;28;20028;-69
2022/07/03 10:27:57;;;;;;;2.50;1.30;;;25.60;99.90;;;;;;5056647;28;20107;-70
2022/07/03 10:30:24;;;;;;;3.58;1.60;;;25.10;99.90;;;;;;5056421;28;20025;-69
2022/07/03 10:32:52;;;;;;;3.70;1.17;;;24.80;99.90;;;;;;5056084;28;20436;-70
2022/07/03 10:35:21;;;;;;;3.80;1.10;;;24.80;99.90;;;;;;5056229;28;20472;-70
2022/07/03 10:38:25;;;;;;;6.07;1.23;;;25.00;99.90;;;;;;5056267;28;20580;-70
2022/07/03 10:46:35;;;;;;;3.58;1.10;;;25.40;99.90;;;;;;5056538;28;20028;-70
2022/07/03 10:49:03;;;;;;;8.82;1.67;;;25.70;99.90;;;;;;5056316;28;20377;-70
2022/07/03 10:51:31;;;;;;;4.00;1.30;;;25.80;99.90;;;;;;5056370;28;20106;-69
2022/07/03 10:54:29;;;;;;;4.35;1.10;;;25.80;99.90;;;;;;5055945;28;20037;-70
2022/07/03 10:56:58;;;;;;;6.65;1.48;;;25.90;99.90;;;;;;5056384;28;20028;-70
2022/07/03 10:59:36;;;;;;;12.75;1.23;;;25.90;99.90;;;;;;5056128;28;20029;-69
2022/07/03 11:02:35;;;;;;;6.28;1.38;;;26.00;99.90;;;;;;5055951;28;20025;-70
2022/07/03 11:05:03;;;;;;;5.45;1.65;;;25.90;99.90;;;;;;5056153;28;20473;-69
2022/07/03 11:07:44;;;;;;;4.75;0.88;;;26.20;99.90;;;;;;5055922;28;20025;-70
2022/07/03 11:10:12;;;;;;;6.03;1.23;;;26.40;99.90;;;;;;5055963;28;20551;-69
2022/07/03 11:12:56;;;;;;;3.85;1.23;;;26.60;99.90;;;;;;5055676;28;20029;-69
2022/07/03 11:15:25;;;;;;;6.45;1.30;;;26.90;99.90;;;;;;5055626;28;20481;-69
2022/07/03 11:18:11;;;;;;;3.08;1.27;;;26.90;99.90;;;;;;5055623;28;20027;-69
2022/07/03 11:20:39;;;;;;;3.10;0.93;;;27.00;99.90;;;;;;5056387;28;20543;-70
2022/07/03 11:23:43;;;;;;;5.25;1.00;;;27.00;99.90;;;;;;5055657;28;20031;-70
2022/07/03 11:26:09;;;;;;;3.65;1.15;;;26.60;99.90;;;;;;4974964;28;20500;-70
2022/07/03 11:28:34;;;;;;;2.60;1.10;;;26.40;99.90;;;;;;4974784;28;20035;-70
2022/07/03 11:31:10;;;;;;;3.88;1.20;;;26.50;99.90;;;;;;5012052;28;20041;-69
2022/07/03 11:33:56;;;;;;;2.75;1.23;;;26.40;99.90;;;;;;5055514;28;20447;-70
2022/07/03 11:36:28;;;;;;;5.32;1.10;;;26.40;99.90;;;;;;5055330;28;20032;-70
2022/07/03 11:38:59;;;;;;;5.53;1.42;;;26.40;99.90;;;;;;5055941;28;20104;-70
2022/07/03 11:41:30;;;;;;;5.20;1.13;;;26.40;99.90;;;;;;5056336;28;20059;-70
2022/07/03 11:44:05;;;;;;;7.18;1.10;;;26.50;99.90;;;;;;5055480;28;20465;-69
2022/07/03 11:46:35;;;;;;;5.20;2.28;;;26.70;99.90;;;;;;5055906;28;20112;-70
2022/07/03 11:49:24;;;;;;;3.22;0.90;;;27.10;99.90;;;;;;5055996;28;20039;-69
2022/07/03 11:52:04;;;;;;;2.15;0.88;;;27.20;99.90;;;;;;5055450;28;20025;-69
2022/07/03 11:54:31;;;;;;;7.55;1.13;;;27.30;99.90;;;;;;5055027;28;20053;-69
2022/07/03 11:56:57;;;;;;;1.75;0.88;;;27.40;99.90;;;;;;5054971;28;20461;-69
2022/07/03 11:59:22;;;;;;;6.03;0.95;;;27.30;99.90;;;;;;5054944;28;20185;-70
2022/07/03 12:01:48;;;;;;;3.38;0.73;;;27.30;99.90;;;;;;5054905;28;20021;-69
2022/07/03 12:04:24;;;;;;;1.42;0.77;;;27.30;99.90;;;;;;5054884;28;20074;-69
2022/07/03 12:06:56;;;;;;;2.90;0.90;;;27.50;99.90;;;;;;5055331;28;20031;-69
2022/07/03 12:09:34;;;;;;;7.45;1.17;;;28.00;99.90;;;;;;5054626;28;20029;-69
2022/07/03 12:12:08;;;;;;;3.35;0.95;;;28.50;99.90;;;;;;5054481;28;20537;-69
2022/07/03 12:14:42;;;;;;;3.95;1.00;;;28.50;99.90;;;;;;5054590;28;20481;-69
2022/07/03 12:17:15;;;;;;;3.67;0.90;;;28.40;99.90;;;;;;5054254;28;20075;-69
2022/07/03 12:19:47;;;;;;;9.75;0.82;;;28.50;99.90;;;;;;5054632;28;20021;-69
2022/07/03 12:22:22;;;;;;;5.50;1.30;;;28.80;99.90;;;;;;5054603;28;20472;-68
2022/07/03 12:25:10;;;;;;;4.07;0.95;;;28.70;99.90;;;;;;5054156;28;20054;-69
2022/07/03 12:27:38;;;;;;;3.90;0.90;;;29.00;99.90;;;;;;5054303;28;20067;-69
2022/07/03 12:30:07;;;;;;;3.78;1.10;;;29.10;99.90;;;;;;5054414;28;20488;-69
2022/07/03 12:32:33;;;;;;;6.15;1.17;;;29.20;99.90;;;;;;5054099;28;20033;-69
2022/07/03 12:34:59;;;;;;;8.18;1.38;;;29.00;99.90;;;;;;5053688;28;20485;-69
2022/07/03 12:37:34;;;;;;;3.15;0.93;;;28.60;99.90;;;;;;5053136;28;20028;-69
2022/07/03 12:40:00;;;;;;;2.30;0.80;;;28.70;99.60;;;;;;5054238;28;20560;-69
2022/07/03 12:42:25;;;;;;;8.23;1.10;;;28.60;98.90;;;;;;5054286;28;20060;-69
2022/07/03 12:45:02;;;;;;;1.92;0.85;;;28.60;98.90;;;;;;5053695;28;20385;-69
2022/07/03 12:47:30;;;;;;;2.60;0.98;;;28.60;99.90;;;;;;5053851;28;20025;-69
2022/07/03 12:50:02;;;;;;;3.42;0.77;;;28.70;99.90;;;;;;5053905;28;20492;-69
2022/07/03 12:52:29;;;;;;;3.75;0.75;;;28.90;99.60;;;;;;5053609;28;20505;-69
2022/07/03 12:54:55;;;;;;;4.03;0.95;;;29.30;99.30;;;;;;5036082;28;20108;-69
2022/07/03 13:00:09;;;;;;;3.08;0.70;;;28.40;97.50;;;;;;5054151;28;20381;-68
2022/07/03 13:02:39;;;;;;;2.60;0.93;;;28.20;98.40;;;;;;5053696;28;20020;-69
2022/07/03 13:05:18;;;;;;;8.32;0.80;;;28.30;97.50;;;;;;5053600;28;20047;-69
2022/07/03 13:07:48;;;;;;;3.42;0.90;;;28.80;98.70;;;;;;5053376;28;20127;-69
2022/07/03 13:10:20;;;;;;;6.40;1.20;;;29.70;95.20;;;;;;5052831;28;20029;-69
2022/07/03 13:12:56;;;;;;;1.33;0.75;;;30.20;95.90;;;;;;5053591;28;20104;-69
2022/07/03 13:15:28;;;;;;;3.83;1.10;;;30.40;94.90;;;;;;5053627;28;20462;-69
2022/07/03 13:17:53;;;;;;;2.97;0.90;;;30.10;97.00;;;;;;5053191;28;20053;-69